Gentil, Brazil
Current Conditions -  °F | °C
As of 10:00 PM on Wednesday 26 Nov 2014 (Local Time) from SBPF Reporting Station
Clear Clear  
Wind Chill: 68°   Ceiling: Unl
Heat Index: 68°   Visibility: 6mi
Dew Point: 61°   Wind: 12mph
Humidity: 78%   Direction: 180°S
Pressure: 29.88"   Gusts: NA
Location:  28.43°S, 52.04°W
Report Text: SBPF 270000Z 18010KT CAVOK 20/16 Q1012
Loading
Personal Weather Stations






























Interactive Weather Map New forecast layout! Learn more

10-Day Weather Forecast

Advertisements
Track Severe Weather on mobile